createdAt,value
2024-02-13T00:01:15.321Z,6.08
2024-02-13T00:03:43.880Z,6.10
2024-02-13T00:06:12.467Z,6.13
2024-02-13T00:08:45.533Z,6.15
2024-02-13T00:11:16.274Z,6.18
2024-02-13T00:13:47.899Z,6.20
2024-02-13T00:16:20.388Z,6.23
2024-02-13T00:18:49.365Z,6.27
2024-02-13T00:21:18.708Z,6.30
2024-02-13T00:23:49.355Z,6.33
2024-02-13T00:26:18.010Z,6.36
2024-02-13T00:28:47.599Z,6.39
2024-02-13T00:31:16.176Z,6.41
2024-02-13T00:33:45.347Z,6.44
2024-02-13T00:36:14.213Z,6.46
2024-02-13T00:38:45.140Z,6.49
2024-02-13T00:41:14.346Z,6.50
2024-02-13T00:43:42.889Z,6.53
2024-02-13T00:46:12.303Z,6.53
2024-02-13T00:48:40.930Z,6.54
2024-02-13T00:51:09.505Z,6.56
2024-02-13T00:53:39.372Z,6.58
2024-02-13T00:56:09.359Z,6.60
2024-02-13T00:58:38.471Z,6.61
2024-02-13T01:01:07.046Z,6.62
2024-02-13T01:03:37.739Z,6.63
2024-02-13T01:06:08.155Z,6.65
2024-02-13T01:08:36.705Z,6.65
2024-02-13T01:11:05.183Z,6.66
2024-02-13T01:13:33.734Z,6.66
2024-02-13T01:16:04.267Z,6.65
2024-02-13T01:18:33.076Z,6.63
2024-02-13T01:21:01.828Z,6.60
2024-02-13T01:23:30.244Z,6.56
2024-02-13T01:26:00.567Z,6.53
2024-02-13T01:28:29.321Z,6.48
2024-02-13T01:30:59.656Z,6.45
2024-02-13T01:33:28.835Z,6.39
2024-02-13T01:35:57.780Z,6.34
2024-02-13T01:38:29.412Z,6.28
2024-02-13T01:40:58.031Z,6.22
2024-02-13T01:43:27.168Z,6.17
2024-02-13T01:45:57.617Z,6.10
2024-02-13T01:48:27.331Z,6.05
2024-02-13T01:51:01.906Z,5.99
2024-02-13T01:53:32.476Z,5.94
2024-02-13T01:56:04.104Z,5.89
2024-02-13T01:58:32.891Z,5.85
2024-02-13T02:01:02.687Z,5.83
2024-02-13T02:03:36.620Z,5.81
2024-02-13T02:06:05.840Z,5.79
2024-02-13T02:08:34.891Z,5.76
2024-02-13T02:11:04.131Z,5.73
2024-02-13T02:13:33.013Z,5.72
2024-02-13T02:16:01.954Z,5.73
2024-02-13T02:18:30.754Z,5.76
2024-02-13T02:20:59.516Z,5.80
2024-02-13T02:23:28.388Z,5.83
2024-02-13T02:25:57.196Z,5.82
2024-02-13T02:28:26.108Z,5.83
2024-02-13T02:30:55.406Z,5.83
2024-02-13T02:33:24.141Z,5.82
2024-02-13T02:35:53.736Z,5.79
2024-02-13T02:38:22.474Z,5.77
2024-02-13T02:40:51.148Z,5.76
2024-02-13T02:43:20.998Z,5.76
2024-02-13T02:45:50.232Z,5.76
2024-02-13T02:48:19.670Z,5.76
2024-02-13T02:50:48.488Z,5.77
2024-02-13T02:53:19.860Z,5.79
2024-02-13T02:55:50.633Z,5.81
2024-02-13T02:58:19.398Z,5.84
2024-02-13T03:00:50.091Z,5.87
2024-02-13T03:03:19.652Z,5.91
2024-02-13T03:05:49.792Z,5.94
2024-02-13T03:08:18.414Z,5.97
2024-02-13T03:10:46.919Z,6.00
2024-02-13T03:13:17.077Z,6.02
2024-02-13T03:15:46.187Z,6.03
2024-02-13T03:18:15.040Z,6.05
2024-02-13T03:20:44.066Z,6.07
2024-02-13T03:23:12.567Z,6.09
2024-02-13T03:25:41.112Z,6.12
2024-02-13T03:28:09.582Z,6.16
2024-02-13T03:30:38.756Z,6.19
2024-02-13T03:33:07.458Z,6.22
2024-02-13T03:35:36.077Z,6.25
2024-02-13T03:38:05.725Z,6.28
2024-02-13T03:40:34.514Z,6.31
2024-02-13T03:43:03.043Z,6.33
2024-02-13T03:45:31.908Z,6.35
2024-02-13T03:48:02.300Z,6.36
2024-02-13T03:50:30.944Z,6.35
2024-02-13T03:52:59.517Z,6.34
2024-02-13T03:55:28.026Z,6.33
2024-02-13T03:57:56.869Z,6.32
2024-02-13T04:00:26.106Z,6.29
2024-02-13T04:02:55.710Z,6.28
2024-02-13T04:05:25.934Z,6.24
2024-02-13T04:07:55.767Z,6.20
2024-02-13T04:10:25.100Z,6.19
2024-02-13T04:12:53.563Z,6.20
2024-02-13T04:15:22.110Z,6.20
2024-02-13T04:17:52.085Z,6.22
2024-02-13T04:20:20.892Z,6.23
2024-02-13T04:22:49.466Z,6.24
2024-02-13T04:25:18.648Z,6.24
2024-02-13T04:27:47.242Z,6.23
2024-02-13T04:30:15.953Z,6.21
2024-02-13T04:32:44.654Z,6.20
2024-02-13T04:35:13.272Z,6.18
2024-02-13T04:37:41.904Z,6.17
2024-02-13T04:40:13.078Z,6.16
2024-02-13T04:42:42.974Z,6.15
2024-02-13T04:45:11.434Z,6.12
2024-02-13T04:47:40.635Z,6.09
2024-02-13T04:50:12.084Z,6.07
2024-02-13T04:52:42.268Z,6.06
2024-02-13T04:55:12.124Z,6.04
2024-02-13T04:57:40.748Z,6.02
2024-02-13T05:00:29.835Z,5.97
2024-02-13T05:03:16.898Z,5.92
2024-02-13T05:06:04.647Z,5.87
2024-02-13T05:08:33.341Z,5.83
2024-02-13T05:11:04.019Z,5.80
2024-02-13T05:13:32.764Z,5.79
2024-02-13T05:16:01.896Z,5.77
2024-02-13T05:18:32.139Z,5.75
2024-02-13T05:21:01.211Z,5.73
2024-02-13T05:23:30.468Z,5.73
2024-02-13T05:25:59.088Z,5.72
2024-02-13T05:28:27.705Z,5.74
2024-02-13T05:30:57.092Z,5.74
2024-02-13T05:33:25.848Z,5.74
2024-02-13T05:35:55.441Z,5.73
2024-02-13T05:38:24.225Z,5.71
2024-02-13T05:40:52.853Z,5.68
2024-02-13T05:43:22.150Z,5.65
2024-02-13T05:45:50.702Z,5.62
2024-02-13T05:48:20.095Z,5.59
2024-02-13T05:50:48.942Z,5.56
2024-02-13T05:53:18.281Z,5.53
2024-02-13T05:55:47.031Z,5.50
2024-02-13T05:58:15.723Z,5.50
2024-02-13T06:00:45.153Z,5.50
2024-02-13T06:03:13.793Z,5.51
2024-02-13T06:05:42.534Z,5.51
2024-02-13T06:08:11.178Z,5.50
2024-02-13T06:10:41.098Z,5.48
2024-02-13T06:13:09.842Z,5.45
2024-02-13T06:15:38.616Z,5.44
2024-02-13T06:18:08.056Z,5.42
2024-02-13T06:20:37.110Z,5.42
2024-02-13T06:23:05.737Z,5.41
2024-02-13T06:25:34.295Z,5.42
2024-02-13T06:28:02.826Z,5.44
2024-02-13T06:30:33.436Z,5.45
2024-02-13T06:33:02.462Z,5.47
2024-02-13T06:35:31.589Z,5.49
2024-02-13T06:38:00.624Z,5.50
2024-02-13T06:40:30.004Z,5.51
2024-02-13T06:42:58.716Z,5.51
2024-02-13T06:45:28.407Z,5.51
2024-02-13T06:47:57.243Z,5.50
2024-02-13T06:50:25.764Z,5.50
2024-02-13T06:52:57.263Z,5.49
2024-02-13T06:55:26.896Z,5.48
2024-02-13T06:57:56.077Z,5.47
2024-02-13T07:00:27.296Z,5.46
2024-02-13T07:02:56.296Z,5.45
2024-02-13T07:05:25.587Z,5.46
2024-02-13T07:07:54.259Z,5.48
2024-02-13T07:10:23.203Z,5.52
2024-02-13T07:12:52.789Z,5.57
2024-02-13T07:17:56.866Z,5.69
2024-02-13T07:20:29.817Z,5.74
2024-02-13T07:22:58.671Z,5.79
2024-02-13T07:25:27.190Z,5.83
2024-02-13T07:27:58.231Z,5.88
2024-02-13T07:30:27.627Z,5.92
2024-02-13T07:32:56.806Z,5.96
2024-02-13T07:35:26.064Z,6.01
2024-02-13T07:37:54.713Z,6.07
2024-02-13T07:40:23.252Z,6.13
2024-02-13T07:42:51.777Z,6.18
2024-02-13T07:45:22.483Z,6.22
2024-02-13T07:47:53.327Z,6.26
2024-02-13T07:50:26.372Z,6.29
2024-02-13T07:52:54.920Z,6.32
2024-02-13T07:55:24.159Z,6.34
2024-02-13T07:57:55.719Z,6.35
2024-02-13T08:00:27.430Z,6.36
2024-02-13T08:02:56.725Z,6.37
2024-02-13T08:05:25.696Z,6.40
2024-02-13T08:07:54.340Z,6.41
2024-02-13T08:10:22.790Z,6.44
2024-02-13T08:12:51.430Z,6.46
2024-02-13T08:15:19.900Z,6.47
2024-02-13T08:17:48.448Z,6.47
2024-02-13T08:20:17.521Z,6.49
2024-02-13T08:22:46.030Z,6.51
2024-02-13T08:25:15.548Z,6.51
2024-02-13T08:27:44.053Z,6.49
2024-02-13T08:30:13.345Z,6.47
2024-02-13T08:32:45.796Z,6.45
2024-02-13T08:35:14.888Z,6.42
2024-02-13T08:37:46.326Z,6.38
2024-02-13T08:40:16.544Z,6.35
2024-02-13T08:42:46.145Z,6.33
2024-02-13T08:45:15.639Z,6.36
2024-02-13T08:47:44.268Z,6.39
2024-02-13T08:50:14.499Z,6.47
2024-02-13T08:52:43.279Z,6.55
2024-02-13T08:55:11.993Z,6.61
2024-02-13T08:57:40.849Z,6.62
2024-02-13T09:00:13.100Z,6.63
2024-02-13T09:02:41.831Z,6.63
2024-02-13T09:05:10.604Z,6.65
2024-02-13T09:07:39.871Z,6.64
2024-02-13T09:10:13.606Z,6.67
2024-02-13T09:12:46.469Z,6.67
2024-02-13T09:15:15.395Z,6.68
2024-02-13T09:17:46.112Z,6.69
2024-02-13T09:20:16.464Z,6.71
2024-02-13T09:22:46.304Z,6.71
2024-02-13T09:25:17.530Z,6.71
2024-02-13T09:27:49.507Z,6.72
2024-02-13T09:30:19.036Z,6.73
2024-02-13T09:32:49.238Z,6.74
2024-02-13T09:35:19.117Z,6.75
2024-02-13T09:37:48.319Z,6.75
2024-02-13T09:40:17.638Z,6.78
2024-02-13T09:42:47.513Z,6.81
2024-02-13T09:45:17.542Z,6.83
2024-02-13T09:47:46.993Z,6.82
2024-02-13T09:50:17.063Z,6.82
2024-02-13T09:52:56.132Z,6.82
2024-02-13T09:55:26.412Z,6.84
2024-02-13T09:57:55.597Z,6.86
2024-02-13T10:00:24.412Z,6.91
2024-02-13T10:02:53.184Z,6.97
2024-02-13T10:05:22.685Z,7.03
2024-02-13T10:07:51.552Z,7.10
2024-02-13T10:10:20.427Z,7.20
2024-02-13T10:13:02.179Z,7.27
2024-02-13T10:15:45.103Z,7.32
2024-02-13T10:18:15.151Z,7.34
2024-02-13T10:20:45.194Z,7.34
2024-02-13T10:23:15.598Z,7.36
2024-02-13T10:25:44.860Z,7.39
2024-02-13T10:28:13.790Z,7.42
2024-02-13T10:30:44.988Z,7.49
2024-02-13T10:33:13.781Z,7.54
2024-02-13T10:35:43.140Z,7.56
2024-02-13T10:38:12.505Z,7.55
2024-02-13T10:40:44.571Z,7.52
2024-02-13T10:43:14.029Z,7.51
2024-02-13T10:45:43.068Z,7.45
2024-02-13T10:48:47.324Z,7.43
2024-02-13T10:51:19.194Z,7.47
2024-02-13T10:53:50.797Z,7.60
2024-02-13T10:56:23.108Z,7.80
2024-02-13T10:58:51.957Z,7.90
2024-02-13T11:01:24.159Z,7.92
2024-02-13T11:03:58.204Z,7.93
2024-02-13T11:06:27.318Z,7.92
2024-02-13T11:08:58.586Z,7.85
2024-02-13T11:11:28.911Z,7.83
2024-02-13T11:13:58.166Z,7.78
2024-02-13T11:16:26.728Z,7.71
2024-02-13T11:18:55.410Z,7.64
2024-02-13T11:21:28.626Z,7.61
2024-02-13T11:24:01.722Z,7.58
2024-02-13T11:26:35.907Z,7.55
2024-02-13T11:29:23.535Z,7.54
2024-02-13T11:31:59.999Z,7.56
2024-02-13T11:34:45.635Z,7.61
2024-02-13T11:37:19.529Z,7.66
2024-02-13T11:39:49.287Z,7.69
2024-02-13T11:42:21.229Z,7.73
2024-02-13T11:44:54.493Z,7.79
2024-02-13T11:47:26.364Z,7.87
2024-02-13T11:49:56.441Z,7.97
2024-02-13T11:52:25.315Z,8.09
2024-02-13T11:54:56.045Z,8.25
2024-02-13T11:57:27.307Z,8.42
2024-02-13T12:00:01.665Z,8.64
2024-02-13T12:02:31.156Z,8.93
2024-02-13T12:04:59.965Z,9.12
2024-02-13T12:07:34.055Z,9.16
2024-02-13T12:10:02.717Z,9.12
2024-02-13T12:12:31.941Z,9.00
2024-02-13T12:15:02.038Z,8.93
2024-02-13T12:17:33.748Z,8.86
2024-02-13T12:20:02.366Z,8.81
2024-02-13T12:22:31.578Z,8.97
2024-02-13T12:25:07.981Z,9.21
2024-02-13T12:27:36.913Z,9.10
2024-02-13T12:30:06.485Z,8.97
2024-02-13T12:32:39.846Z,8.86
2024-02-13T12:35:23.358Z,8.75
2024-02-13T12:37:55.840Z,8.60
2024-02-13T12:40:27.661Z,8.49
2024-02-13T12:42:56.544Z,8.40
2024-02-13T12:45:26.383Z,8.35
2024-02-13T12:47:57.072Z,8.33
2024-02-13T12:50:27.987Z,8.31
2024-02-13T12:52:56.781Z,8.29
2024-02-13T12:55:26.991Z,8.28
2024-02-13T12:57:56.104Z,8.26
2024-02-13T13:00:24.600Z,8.25
2024-02-13T13:02:54.267Z,8.23
2024-02-13T13:05:23.730Z,8.20
2024-02-13T13:07:54.536Z,8.18
2024-02-13T13:10:24.485Z,8.18
2024-02-13T13:12:53.384Z,8.18
2024-02-13T13:15:25.171Z,8.18
2024-02-13T13:17:56.066Z,8.19
2024-02-13T13:20:25.384Z,8.24
2024-02-13T13:22:53.952Z,8.29
2024-02-13T13:25:27.376Z,8.30
2024-02-13T13:28:00.663Z,8.31
2024-02-13T13:30:30.384Z,8.29
2024-02-13T13:32:59.617Z,8.27
2024-02-13T13:35:29.923Z,8.27
2024-02-13T13:38:01.055Z,8.26
2024-02-13T13:40:34.520Z,8.25
2024-02-13T13:43:03.115Z,8.24
2024-02-13T13:45:31.784Z,8.22
2024-02-13T13:48:16.579Z,8.19
2024-02-13T13:50:45.137Z,8.20
2024-02-13T13:53:14.605Z,8.22
2024-02-13T13:55:45.057Z,8.24
2024-02-13T13:58:13.946Z,8.27
2024-02-13T14:00:46.471Z,8.29
2024-02-13T14:03:16.057Z,8.31
2024-02-13T14:05:45.646Z,8.33
2024-02-13T14:08:14.403Z,8.34
2024-02-13T14:10:45.948Z,8.36
2024-02-13T14:13:15.409Z,8.38
2024-02-13T14:15:44.206Z,8.44
2024-02-13T14:18:13.046Z,8.69
2024-02-13T14:20:43.130Z,9.22
2024-02-13T14:23:11.881Z,9.50
2024-02-13T14:25:40.844Z,9.49
2024-02-13T14:28:11.019Z,9.44
2024-02-13T14:30:42.220Z,9.31
2024-02-13T14:33:11.910Z,9.17
2024-02-13T14:35:43.365Z,9.13
2024-02-13T14:38:12.677Z,9.15
2024-02-13T14:40:41.348Z,9.10
2024-02-13T14:43:11.146Z,9.06
2024-02-13T14:45:41.205Z,9.03
2024-02-13T14:48:10.583Z,9.12
2024-02-13T14:50:41.197Z,9.23
2024-02-13T14:53:11.297Z,9.19
2024-02-13T14:55:40.462Z,9.15
2024-02-13T14:58:19.279Z,9.26
2024-02-13T15:00:56.569Z,9.52
2024-02-13T15:03:26.547Z,9.78
2024-02-13T15:05:55.502Z,9.82
2024-02-13T15:08:24.154Z,9.81
2024-02-13T15:10:53.338Z,9.73
2024-02-13T15:13:22.563Z,9.64
2024-02-13T15:15:52.537Z,9.53
2024-02-13T15:18:23.507Z,9.40
2024-02-13T15:20:53.015Z,9.25
2024-02-13T15:23:25.626Z,9.07
2024-02-13T15:25:55.371Z,8.90
2024-02-13T15:28:24.572Z,8.73
2024-02-13T15:30:54.148Z,8.61
2024-02-13T15:33:26.322Z,8.60
2024-02-13T15:36:06.667Z,8.56
2024-02-13T15:38:54.588Z,8.47
2024-02-13T15:41:52.762Z,8.37
2024-02-13T15:44:40.031Z,8.24
2024-02-13T15:47:09.289Z,8.13
2024-02-13T15:49:40.999Z,8.06
2024-02-13T15:52:11.918Z,8.00
2024-02-13T15:54:41.212Z,7.93
2024-02-13T15:57:10.359Z,7.86
2024-02-13T15:59:44.927Z,7.78
2024-02-13T16:02:16.108Z,7.71
2024-02-13T16:04:44.957Z,7.63
2024-02-13T16:07:16.676Z,7.53
2024-02-13T16:09:47.035Z,7.43
2024-02-13T16:12:15.540Z,7.34
2024-02-13T16:14:44.315Z,7.27
2024-02-13T16:17:13.080Z,7.19
2024-02-13T16:19:41.686Z,7.12
2024-02-13T16:22:10.328Z,7.06
2024-02-13T16:24:38.860Z,6.98
2024-02-13T16:27:07.412Z,6.90
2024-02-13T16:29:40.118Z,6.84
2024-02-13T16:32:13.041Z,6.77
2024-02-13T16:34:43.501Z,6.70
2024-02-13T16:37:12.498Z,6.62
2024-02-13T16:39:41.496Z,6.54
2024-02-13T16:42:10.119Z,6.45
2024-02-13T16:44:39.515Z,6.39
2024-02-13T16:47:10.304Z,6.32
2024-02-13T16:49:39.108Z,6.24
2024-02-13T16:52:09.980Z,6.15
2024-02-13T16:54:38.538Z,6.07
2024-02-13T16:57:07.160Z,5.99
2024-02-13T16:59:35.703Z,5.91
2024-02-13T17:02:05.029Z,5.85
2024-02-13T17:04:33.492Z,5.78
2024-02-13T17:07:02.205Z,5.72
2024-02-13T17:09:31.604Z,5.65
2024-02-13T17:12:00.184Z,5.58
2024-02-13T17:14:30.201Z,5.51
2024-02-13T17:16:58.996Z,5.44
2024-02-13T17:19:27.675Z,5.37
2024-02-13T17:21:57.156Z,5.26
2024-02-13T17:24:25.659Z,5.15
2024-02-13T17:26:54.137Z,5.03
2024-02-13T17:29:22.944Z,4.90
2024-02-13T17:31:53.228Z,4.80
2024-02-13T17:34:22.892Z,4.69
2024-02-13T17:36:51.536Z,4.57
2024-02-13T17:39:20.584Z,4.45
2024-02-13T17:41:51.590Z,4.35
2024-02-13T17:44:20.478Z,4.27
2024-02-13T17:46:49.070Z,4.20
2024-02-13T17:49:18.323Z,4.09
2024-02-13T17:51:46.991Z,3.99
2024-02-13T17:54:15.509Z,3.92
2024-02-13T17:56:47.739Z,3.85
2024-02-13T17:59:16.630Z,3.77
2024-02-13T18:01:51.417Z,3.66
2024-02-13T18:04:21.941Z,3.53
2024-02-13T18:06:50.657Z,3.46
2024-02-13T18:09:19.288Z,3.38
2024-02-13T18:11:47.726Z,3.31
2024-02-13T18:14:17.344Z,3.27
2024-02-13T18:16:45.865Z,3.24
2024-02-13T18:19:14.808Z,3.20
2024-02-13T18:21:43.354Z,3.10
2024-02-13T18:24:11.871Z,3.01
2024-02-13T18:26:40.383Z,2.95
2024-02-13T18:29:09.077Z,2.93
2024-02-13T18:31:39.715Z,2.91
2024-02-13T18:34:08.551Z,2.89
2024-02-13T18:36:45.149Z,2.88
2024-02-13T18:39:16.932Z,2.85
2024-02-13T18:41:45.471Z,2.82
2024-02-13T18:44:14.118Z,2.79
2024-02-13T18:46:43.554Z,2.78
2024-02-13T18:49:13.092Z,2.73
2024-02-13T18:51:42.884Z,2.69
2024-02-13T18:54:11.742Z,2.63
2024-02-13T18:56:42.099Z,2.58
2024-02-13T18:59:12.494Z,2.54
2024-02-13T19:01:43.444Z,2.49
2024-02-13T19:04:11.939Z,2.44
2024-02-13T19:06:40.629Z,2.38
2024-02-13T19:09:11.013Z,2.33
2024-02-13T19:11:41.187Z,2.27
2024-02-13T19:14:11.095Z,2.23
2024-02-13T19:16:45.089Z,2.19
2024-02-13T19:19:15.013Z,2.16
2024-02-13T19:21:44.099Z,2.13
2024-02-13T19:24:12.922Z,2.09
2024-02-13T19:26:41.558Z,2.06
2024-02-13T19:29:10.266Z,2.04
2024-02-13T19:31:39.031Z,2.03
2024-02-13T19:34:07.675Z,2.00
2024-02-13T19:36:36.361Z,1.98
2024-02-13T19:39:04.889Z,1.96
2024-02-13T19:41:33.627Z,1.95
2024-02-13T19:44:02.481Z,1.94
2024-02-13T19:46:30.954Z,1.94
2024-02-13T19:48:59.753Z,1.94
2024-02-13T19:51:33.727Z,1.94
2024-02-13T19:54:03.138Z,1.93
2024-02-13T19:56:33.332Z,1.92
2024-02-13T19:59:01.985Z,1.90
2024-02-13T20:01:37.589Z,1.86
2024-02-13T20:04:10.344Z,1.83
2024-02-13T20:06:39.217Z,1.80
2024-02-13T20:09:09.707Z,1.77
2024-02-13T20:11:42.442Z,1.74
2024-02-13T20:14:13.989Z,1.70
2024-02-13T20:16:42.578Z,1.66
2024-02-13T20:19:15.510Z,1.64
2024-02-13T20:21:49.611Z,1.61
2024-02-13T20:24:18.324Z,1.58
2024-02-13T20:27:10.757Z,1.55
2024-02-13T20:29:39.466Z,1.52
2024-02-13T20:32:08.196Z,1.49
2024-02-13T20:34:40.147Z,1.47
2024-02-13T20:37:12.223Z,1.44
2024-02-13T20:39:43.039Z,1.41
2024-02-13T20:42:11.514Z,1.40
2024-02-13T20:44:42.003Z,1.39
2024-02-13T20:47:11.878Z,1.39
2024-02-13T20:49:42.300Z,1.38
2024-02-13T20:52:14.414Z,1.37
2024-02-13T20:55:04.147Z,1.37
2024-02-13T20:58:03.111Z,1.36
2024-02-13T21:00:33.470Z,1.33
2024-02-13T21:03:06.310Z,1.31
2024-02-13T21:05:36.493Z,1.29
2024-02-13T21:08:06.079Z,1.28
2024-02-13T21:10:34.695Z,1.28
2024-02-13T21:13:04.164Z,1.29
2024-02-13T21:15:35.405Z,1.29
2024-02-13T21:18:07.445Z,1.30
2024-02-13T21:20:47.482Z,1.31
2024-02-13T21:23:35.089Z,1.30
2024-02-13T21:26:04.263Z,1.29
2024-02-13T21:28:34.367Z,1.28
2024-02-13T21:31:05.649Z,1.28
2024-02-13T21:33:34.595Z,1.27
2024-02-13T21:36:03.716Z,1.26
2024-02-13T21:38:32.764Z,1.25
2024-02-13T21:41:01.241Z,1.25
2024-02-13T21:43:30.174Z,1.25
2024-02-13T21:45:59.204Z,1.25
2024-02-13T21:48:28.036Z,1.24
2024-02-13T21:50:56.826Z,1.23
2024-02-13T21:53:25.608Z,1.22
2024-02-13T21:55:54.262Z,1.22
2024-02-13T21:58:23.464Z,1.21
2024-02-13T22:00:52.096Z,1.20
2024-02-13T22:03:20.604Z,1.20
2024-02-13T22:05:49.637Z,1.20
2024-02-13T22:08:19.344Z,1.20
2024-02-13T22:10:48.179Z,1.19
2024-02-13T22:13:19.491Z,1.18
2024-02-13T22:15:48.908Z,1.17
2024-02-13T22:18:17.589Z,1.17
2024-02-13T22:20:46.719Z,1.17
2024-02-13T22:23:15.657Z,1.16
2024-02-13T22:25:44.331Z,1.15
2024-02-13T22:28:13.878Z,1.14
2024-02-13T22:30:46.857Z,1.13
2024-02-13T22:33:16.033Z,1.11
2024-02-13T22:35:44.900Z,1.09
2024-02-13T22:38:13.445Z,1.06
2024-02-13T22:40:42.177Z,1.01
2024-02-13T22:43:10.733Z,0.97
2024-02-13T22:45:40.772Z,0.94
2024-02-13T22:48:09.494Z,0.91
2024-02-13T22:50:38.095Z,0.89
2024-02-13T22:53:06.644Z,0.86
2024-02-13T22:55:36.325Z,0.84
2024-02-13T22:58:05.237Z,0.82
2024-02-13T23:00:44.447Z,0.81
2024-02-13T23:03:14.055Z,0.79
2024-02-13T23:08:41.824Z,0.74
2024-02-13T23:11:11.264Z,0.71
2024-02-13T23:13:45.629Z,0.69
2024-02-13T23:16:17.916Z,0.66
2024-02-13T23:18:46.765Z,0.65
2024-02-13T23:21:16.422Z,0.65
2024-02-13T23:23:45.296Z,0.64
2024-02-13T23:26:14.224Z,0.63
2024-02-13T23:28:51.954Z,0.63
2024-02-13T23:31:25.953Z,0.63
2024-02-13T23:33:55.117Z,0.62
2024-02-13T23:36:24.245Z,0.62
2024-02-13T23:38:53.033Z,0.62
2024-02-13T23:41:21.640Z,0.62
2024-02-13T23:43:50.222Z,0.62
2024-02-13T23:46:20.756Z,0.62
2024-02-13T23:48:49.637Z,0.63
2024-02-13T23:51:18.517Z,0.63
2024-02-13T23:53:47.203Z,0.65
2024-02-13T23:56:16.001Z,0.66
2024-02-13T23:58:44.637Z,0.66
